Time;durP1;ratioP1;P1;durP2;ratioP2;P2;SDS_P1;SDS_P2;PMS_P1;PMS_P2;Temp;Humidity;BMP_temperature;BMP_pressure;BME280_temperature;BME280_humidity;BME280_pressure;Samples;Min_cycle;Max_cycle;Signal;HPM_P1;HPM_P2
2022/01/28 00:01:00;;;;;;;5.78;4.10;;;6.00;67.90;;;;;;5049393;28;20443;-75
2022/01/28 00:03:26;;;;;;;6.32;4.50;;;5.90;67.70;;;;;;5049766;28;20029;-77
2022/01/28 00:05:52;;;;;;;5.75;4.47;;;5.90;67.80;;;;;;5032386;28;20037;-75
2022/01/28 00:08:18;;;;;;;5.75;4.25;;;5.90;67.80;;;;;;5049550;28;20145;-76
2022/01/28 00:10:45;;;;;;;5.40;4.45;;;5.90;67.80;;;;;;5049470;28;20413;-77
2022/01/28 00:39:29;;;;;;;5.70;4.10;;;5.60;67.40;;;;;;5051076;28;20037;-76
2022/01/28 00:41:55;;;;;;;5.50;4.03;;;5.50;67.30;;;;;;5049820;28;20060;-76
2022/01/28 00:44:21;;;;;;;6.45;4.82;;;5.50;67.30;;;;;;5047832;28;20031;-76
2022/01/28 00:46:47;;;;;;;5.50;4.05;;;5.50;67.30;;;;;;5048679;28;20040;-77
2022/01/28 00:49:13;;;;;;;4.82;4.32;;;5.50;67.30;;;;;;5033879;28;20476;-76
2022/01/28 00:51:39;;;;;;;5.28;4.15;;;5.50;67.30;;;;;;5028681;28;20079;-77
2022/01/28 00:54:05;;;;;;;4.78;4.10;;;5.50;67.30;;;;;;5028755;28;20052;-76
2022/01/28 00:56:32;;;;;;;5.45;4.10;;;5.50;67.30;;;;;;5028257;28;20362;-76
2022/01/28 00:58:58;;;;;;;8.60;4.28;;;5.50;67.30;;;;;;5028049;28;20025;-76
2022/01/28 01:01:24;;;;;;;6.05;4.45;;;5.40;67.10;;;;;;5028138;28;20448;-76
2022/01/28 01:03:50;;;;;;;6.03;4.22;;;5.40;67.10;;;;;;5028401;28;20026;-76
2022/01/28 01:06:18;;;;;;;4.90;4.00;;;5.40;67.20;;;;;;5028116;28;20106;-76
2022/01/28 01:08:44;;;;;;;6.50;4.35;;;5.40;67.10;;;;;;5026476;28;20045;-75
2022/01/28 01:11:10;;;;;;;5.47;4.13;;;5.40;67.10;;;;;;5026551;28;20083;-77
2022/01/28 01:13:39;;;;;;;6.00;4.25;;;5.40;67.20;;;;;;5027767;28;20488;-76
2022/01/28 01:19:28;;;;;;;4.22;3.63;;;5.30;67.10;;;;;;5019561;28;20215;-77
2022/01/28 01:21:57;;;;;;;5.65;4.30;;;5.30;67.00;;;;;;5028133;28;20037;-77
2022/01/28 01:24:26;;;;;;;6.70;4.68;;;5.20;66.90;;;;;;5027744;28;20472;-76
2022/01/28 01:26:52;;;;;;;6.13;3.60;;;5.20;66.90;;;;;;5026928;28;20030;-76
2022/01/28 01:29:21;;;;;;;5.82;4.22;;;5.20;66.90;;;;;;5028393;28;20029;-76
2022/01/28 01:31:47;;;;;;;6.60;4.53;;;5.10;66.80;;;;;;5027643;28;20103;-77
2022/01/28 01:34:20;;;;;;;5.35;4.28;;;5.10;66.80;;;;;;5027198;28;20048;-77
2022/01/28 01:36:47;;;;;;;;;;;5.10;66.80;;;;;;5025362;28;20270;-77
2022/01/28 01:39:27;;;;;;;5.55;4.03;;;5.10;66.80;;;;;;5024897;28;19948;-77
2022/01/28 01:42:01;;;;;;;7.32;4.15;;;5.10;66.80;;;;;;5026625;28;20447;-77
2022/01/28 01:52:45;;;;;;;5.53;3.88;;;5.00;66.60;;;;;;5026225;28;20036;-78
2022/01/28 01:55:12;;;;;;;6.15;4.28;;;5.00;66.60;;;;;;5028161;28;20037;-78
2022/01/28 01:57:38;;;;;;;6.72;4.13;;;5.00;66.60;;;;;;5027766;28;20030;-77
2022/01/28 02:00:08;;;;;;;5.45;4.13;;;4.90;66.40;;;;;;5043096;28;20030;-78
2022/01/28 02:02:35;;;;;;;6.22;4.57;;;4.90;66.50;;;;;;5027703;28;20480;-76
2022/01/28 02:05:01;;;;;;;6.45;4.68;;;4.90;66.50;;;;;;5027906;28;20546;-76
2022/01/28 02:07:27;;;;;;;6.38;4.28;;;4.90;66.50;;;;;;5027864;28;20201;-77
2022/01/28 02:09:53;;;;;;;5.22;4.00;;;4.90;66.50;;;;;;5026273;28;20120;-77
2022/01/28 02:12:19;;;;;;;5.43;4.28;;;4.80;66.30;;;;;;5026479;28;20026;-77
2022/01/28 02:14:45;;;;;;;5.40;4.07;;;4.80;66.30;;;;;;5027422;28;20053;-77
2022/01/28 02:17:11;;;;;;;5.75;4.63;;;4.80;66.40;;;;;;5026599;28;20170;-76
2022/01/28 02:19:39;;;;;;;6.30;4.88;;;4.80;66.60;;;;;;5027517;28;20124;-77
2022/01/28 02:22:05;;;;;;;4.95;3.95;;;4.80;66.40;;;;;;5027486;28;20045;-77
2022/01/28 02:24:39;;;;;;;5.45;4.47;;;4.70;66.20;;;;;;5027228;28;20021;-76
2022/01/28 02:27:06;;;;;;;5.53;4.32;;;4.70;66.20;;;;;;5026562;28;20384;-76
2022/01/28 02:29:35;;;;;;;6.70;4.50;;;4.70;66.30;;;;;;5027231;28;20053;-76
2022/01/28 02:32:07;;;;;;;8.00;4.68;;;4.70;66.30;;;;;;5028475;28;20478;-76
2022/01/28 02:34:35;;;;;;;6.30;4.28;;;4.70;66.80;;;;;;5029946;28;20614;-76
2022/01/28 02:37:02;;;;;;;5.50;4.57;;;4.60;66.10;;;;;;5031684;28;20025;-76
2022/01/28 02:39:29;;;;;;;6.13;4.28;;;4.60;66.10;;;;;;5030398;28;20034;-76
2022/01/28 02:42:03;;;;;;;7.70;4.63;;;4.60;66.10;;;;;;5030038;28;20049;-76
2022/01/28 02:44:44;;;;;;;6.10;4.10;;;4.60;66.10;;;;;;5030980;28;20174;-76
2022/01/28 02:47:15;;;;;;;5.35;4.40;;;4.60;66.10;;;;;;5036887;22;20072;-73
2022/01/28 02:49:43;;;;;;;6.82;4.70;;;4.50;66.00;;;;;;5032412;28;20423;-74
2022/01/28 02:52:17;;;;;;;6.57;4.88;;;4.60;66.10;;;;;;5033246;28;20373;-74
2022/01/28 02:54:47;;;;;;;8.50;4.85;;;4.50;66.00;;;;;;5032488;28;20033;-75
2022/01/28 02:57:17;;;;;;;5.80;4.88;;;4.50;66.00;;;;;;5033962;28;20041;-76
2022/01/28 02:59:43;;;;;;;6.82;4.45;;;4.50;66.00;;;;;;5032324;28;20113;-76
2022/01/28 03:02:09;;;;;;;7.43;4.68;;;4.50;66.00;;;;;;5048978;28;20503;-76
2022/01/28 03:07:06;;;;;;;8.20;5.07;;;4.40;65.80;;;;;;5033644;28;20037;-76
2022/01/28 03:09:52;;;;;;;7.45;5.15;;;4.40;65.80;;;;;;5048841;28;20030;-76
2022/01/28 03:12:22;;;;;;;7.72;4.60;;;4.40;65.80;;;;;;5033826;28;20025;-75
2022/01/28 03:15:00;;;;;;;8.23;5.18;;;4.40;65.80;;;;;;5032418;28;20035;-75
2022/01/28 03:20:58;;;;;;;8.73;5.00;;;4.40;65.80;;;;;;5033700;28;20033;-75
2022/01/28 03:22:49;;;;;;;7.80;4.90;;;4.40;66.00;;;;;;5022687;28;20287;-75
2022/01/28 03:25:17;;;;;;;8.07;4.90;;;4.40;65.80;;;;;;5033172;28;20519;-75
2022/01/28 03:27:51;;;;;;;10.40;5.38;;;4.40;65.80;;;;;;5031857;28;20269;-75
2022/01/28 03:30:17;;;;;;;7.80;5.60;;;4.40;65.80;;;;;;5015457;28;20456;-75
2022/01/28 03:32:43;;;;;;;9.80;5.53;;;4.40;65.70;;;;;;5033331;28;20036;-75
2022/01/28 03:35:11;;;;;;;10.23;5.65;;;4.40;65.80;;;;;;5033059;28;20060;-75
2022/01/28 03:37:37;;;;;;;8.68;5.43;;;4.40;65.80;;;;;;5032687;28;20044;-75
2022/01/28 03:40:06;;;;;;;8.50;5.75;;;4.40;65.80;;;;;;5034061;28;20037;-75
2022/01/28 03:42:33;;;;;;;8.63;5.20;;;4.40;65.80;;;;;;5031665;28;20065;-74
2022/01/28 03:44:59;;;;;;;10.40;5.50;;;4.40;65.80;;;;;;5034620;28;20112;-74
2022/01/28 03:47:25;;;;;;;8.25;5.38;;;4.40;65.80;;;;;;5032077;28;20487;-75
2022/01/28 03:49:51;;;;;;;7.25;5.05;;;4.40;65.80;;;;;;5032488;28;20109;-73
2022/01/28 03:52:17;;;;;;;7.75;5.47;;;4.40;65.70;;;;;;5032782;28;20057;-74
2022/01/28 03:54:43;;;;;;;8.02;5.30;;;4.40;65.70;;;;;;5031260;28;20034;-75
2022/01/28 03:57:09;;;;;;;7.03;4.80;;;4.40;65.70;;;;;;5032566;28;20083;-75
2022/01/28 03:59:36;;;;;;;8.10;5.47;;;4.40;65.70;;;;;;5032726;28;20036;-75
2022/01/28 04:02:05;;;;;;;8.75;5.40;;;4.40;65.70;;;;;;5031861;28;20045;-75
2022/01/28 04:12:40;;;;;;;9.63;6.18;;;4.30;65.60;;;;;;5034691;28;20121;-74
2022/01/28 04:15:23;;;;;;;10.60;6.15;;;4.30;65.60;;;;;;5016150;28;20043;-74
2022/01/28 04:17:50;;;;;;;11.23;6.63;;;4.20;65.40;;;;;;5032345;28;20467;-75
2022/01/28 04:20:17;;;;;;;11.90;6.47;;;4.30;65.60;;;;;;5032502;28;20120;-74
2022/01/28 04:22:43;;;;;;;8.50;6.25;;;4.20;65.50;;;;;;5032361;28;20060;-74
2022/01/28 04:25:10;;;;;;;10.77;6.32;;;4.20;65.50;;;;;;5032406;28;20083;-74
2022/01/28 04:27:36;;;;;;;13.10;6.55;;;4.20;65.50;;;;;;5032688;28;20057;-74
2022/01/28 04:30:03;;;;;;;10.10;6.43;;;4.20;65.50;;;;;;5031566;28;20079;-75
2022/01/28 04:32:30;;;;;;;10.77;7.03;;;4.20;65.50;;;;;;5031655;28;20158;-75
2022/01/28 04:34:58;;;;;;;7.93;5.68;;;4.20;65.50;;;;;;5031802;28;20171;-75
2022/01/28 04:45:53;;;;;;;10.55;6.75;;;4.10;65.30;;;;;;5031759;28;20030;-75
2022/01/28 04:56:40;;;;;;;16.35;6.40;;;4.10;65.40;;;;;;5029525;28;20403;-74
2022/01/28 05:27:06;;;;;;;11.63;7.40;;;3.80;65.00;;;;;;5030259;28;20116;-75
2022/01/28 05:29:32;;;;;;;10.13;6.72;;;3.80;65.00;;;;;;5030898;28;20121;-74
2022/01/28 05:31:58;;;;;;;9.48;6.95;;;3.80;65.00;;;;;;5030965;28;20511;-74
2022/01/28 05:34:27;;;;;;;10.93;6.85;;;3.80;65.10;;;;;;5031899;28;20049;-75
2022/01/28 05:36:57;;;;;;;12.93;7.15;;;3.80;65.00;;;;;;5032471;28;20514;-75
2022/01/28 05:39:23;;;;;;;8.48;6.53;;;3.80;65.10;;;;;;5029539;28;20128;-74
2022/01/28 05:41:50;;;;;;;8.63;5.75;;;3.80;65.00;;;;;;5031339;28;20180;-75
2022/01/28 05:44:18;;;;;;;8.88;6.45;;;3.70;64.90;;;;;;5031235;28;20049;-75
2022/01/28 05:46:45;;;;;;;10.13;6.57;;;3.70;64.90;;;;;;5030845;28;20167;-75
2022/01/28 05:49:13;;;;;;;7.43;5.93;;;3.70;64.80;;;;;;5020799;28;20169;-74
2022/01/28 05:51:42;;;;;;;11.05;6.78;;;3.70;64.90;;;;;;5022884;28;20036;-75
2022/01/28 05:54:08;;;;;;;8.15;5.93;;;3.70;64.90;;;;;;4990545;28;20033;-75
2022/01/28 05:56:37;;;;;;;10.02;6.60;;;3.70;64.90;;;;;;5010125;28;20089;-75
2022/01/28 05:59:08;;;;;;;10.15;6.82;;;3.70;64.90;;;;;;5021220;28;20029;-76
2022/01/28 06:01:59;;;;;;;8.10;6.32;;;3.60;64.70;;;;;;5008588;28;20102;-74
2022/01/28 06:04:25;;;;;;;10.65;6.20;;;3.60;64.70;;;;;;5008837;28;20469;-74
2022/01/28 06:06:51;;;;;;;10.02;6.78;;;3.60;64.70;;;;;;5010500;28;20120;-74
2022/01/28 06:09:17;;;;;;;10.73;6.05;;;3.60;64.70;;;;;;5025735;28;20073;-73
2022/01/28 06:11:45;;;;;;;10.65;6.40;;;3.60;64.80;;;;;;5032149;28;20457;-73
2022/01/28 06:14:11;;;;;;;10.30;6.72;;;3.60;64.70;;;;;;5032158;28;20025;-73
2022/01/28 06:16:38;;;;;;;8.73;6.38;;;3.50;64.60;;;;;;5032881;28;20040;-73
2022/01/28 06:19:04;;;;;;;10.23;6.30;;;3.50;64.60;;;;;;5019233;28;20060;-74
2022/01/28 06:21:30;;;;;;;9.57;6.30;;;3.50;64.60;;;;;;5013427;28;20077;-75
2022/01/28 06:23:56;;;;;;;9.15;5.82;;;3.50;64.60;;;;;;5013284;28;20509;-74
2022/01/28 06:26:22;;;;;;;11.27;6.75;;;3.50;64.60;;;;;;5012674;28;20041;-74
2022/01/28 06:28:48;;;;;;;9.27;6.22;;;3.50;64.60;;;;;;5011372;28;20046;-73
2022/01/28 06:31:14;;;;;;;9.93;6.80;;;3.50;64.60;;;;;;5010314;28;20022;-73
2022/01/28 06:33:41;;;;;;;9.70;6.50;;;3.40;64.40;;;;;;5011982;28;20052;-75
2022/01/28 06:36:07;;;;;;;7.90;6.53;;;3.40;64.40;;;;;;5013866;28;20036;-74
2022/01/28 06:38:35;;;;;;;8.07;6.55;;;3.40;64.40;;;;;;5021066;28;20041;-74
2022/01/28 06:41:02;;;;;;;12.88;7.63;;;3.40;64.40;;;;;;5033383;28;20033;-76
2022/01/28 06:43:29;;;;;;;18.27;6.88;;;3.40;64.40;;;;;;5033132;28;20053;-75
2022/01/28 06:46:24;;;;;;;9.57;7.05;;;3.50;64.60;;;;;;5040742;28;20516;-79
2022/01/28 06:49:22;;;;;;;11.65;6.45;;;3.50;64.80;;;;;;5060209;28;20087;-80
2022/01/28 06:52:22;;;;;;;10.82;6.47;;;3.50;64.80;;;;;;5029098;28;20131;-76
2022/01/28 06:54:48;;;;;;;12.48;7.20;;;3.60;64.90;;;;;;5028281;28;20033;-77
2022/01/28 06:57:14;;;;;;;12.02;7.50;;;3.50;64.60;;;;;;5030344;28;20100;-77
2022/01/28 06:59:40;;;;;;;10.50;6.15;;;3.50;64.60;;;;;;5014808;28;20546;-76
2022/01/28 07:02:07;;;;;;;9.02;6.07;;;3.50;64.70;;;;;;5012437;28;20501;-77
2022/01/28 07:04:33;;;;;;;10.25;6.65;;;3.50;64.70;;;;;;5021265;28;20028;-76
2022/01/28 07:06:59;;;;;;;10.40;7.07;;;3.50;64.70;;;;;;5030762;28;20026;-77
2022/01/28 07:09:25;;;;;;;9.98;7.03;;;3.50;64.80;;;;;;5030347;28;20044;-77
2022/01/28 07:11:51;;;;;;;8.57;7.15;;;3.40;64.60;;;;;;5029586;28;20038;-77
2022/01/28 07:14:17;;;;;;;10.40;8.02;;;3.50;64.80;;;;;;5031093;28;20038;-78
2022/01/28 07:16:43;;;;;;;9.13;6.75;;;3.40;64.60;;;;;;5030485;28;20041;-76
2022/01/28 07:19:09;;;;;;;11.23;7.88;;;3.40;64.60;;;;;;5025281;28;20034;-75
2022/01/28 07:21:36;;;;;;;13.68;8.07;;;3.40;64.70;;;;;;5009149;28;20403;-74
2022/01/28 07:24:03;;;;;;;11.75;8.60;;;3.40;64.70;;;;;;5010250;28;20036;-75
2022/01/28 07:26:29;;;;;;;10.90;7.72;;;3.40;64.80;;;;;;5009835;28;20152;-75
2022/01/28 07:28:55;;;;;;;12.27;8.10;;;3.40;64.80;;;;;;5015994;28;20081;-75
2022/01/28 07:31:21;;;;;;;11.95;7.78;;;3.40;64.80;;;;;;5008762;28;20117;-75
2022/01/28 07:33:48;;;;;;;13.43;8.85;;;3.50;64.90;;;;;;5014679;28;20048;-76
2022/01/28 07:36:14;;;;;;;11.05;8.75;;;3.50;64.90;;;;;;5025205;28;20026;-75
2022/01/28 07:38:40;;;;;;;14.85;9.52;;;3.50;64.80;;;;;;5009451;28;20034;-75
2022/01/28 07:41:06;;;;;;;14.15;10.27;;;3.60;65.00;;;;;;5009871;28;20034;-75
2022/01/28 07:43:37;;;;;;;11.88;8.10;;;3.60;65.00;;;;;;5009172;28;20033;-75
2022/01/28 07:46:04;;;;;;;12.50;8.95;;;3.60;65.00;;;;;;4991990;28;20034;-76
2022/01/28 07:48:31;;;;;;;12.35;8.85;;;3.60;65.00;;;;;;5015214;28;20132;-75
2022/01/28 07:50:57;;;;;;;13.95;9.27;;;3.70;65.20;;;;;;5028957;28;20033;-76
2022/01/28 07:53:24;;;;;;;14.25;9.88;;;3.70;65.10;;;;;;5027732;28;20036;-76
2022/01/28 07:55:50;;;;;;;14.40;8.55;;;3.70;65.10;;;;;;5027659;28;20030;-75
2022/01/28 07:58:16;;;;;;;16.45;10.95;;;3.70;65.10;;;;;;5022771;28;20034;-75
2022/01/28 08:00:42;;;;;;;14.43;9.75;;;3.70;65.10;;;;;;5009065;28;20033;-75
2022/01/28 08:03:08;;;;;;;12.93;9.07;;;3.80;65.20;;;;;;5009115;28;20033;-75
2022/01/28 08:05:34;;;;;;;15.05;9.55;;;3.80;65.20;;;;;;5008353;28;20477;-76
2022/01/28 08:08:04;;;;;;;12.88;9.32;;;3.80;65.10;;;;;;5015955;28;20037;-76
2022/01/28 08:10:32;;;;;;;14.52;9.75;;;3.90;65.30;;;;;;5008840;28;20034;-76
2022/01/28 08:13:01;;;;;;;14.43;10.02;;;3.90;65.30;;;;;;5009526;28;20060;-76
2022/01/28 08:15:27;;;;;;;13.20;9.60;;;4.00;65.40;;;;;;5007721;28;20433;-76
2022/01/28 08:17:53;;;;;;;17.02;9.90;;;4.00;65.40;;;;;;5009021;28;20196;-76
2022/01/28 08:20:19;;;;;;;16.80;10.70;;;4.00;65.30;;;;;;5008872;28;20481;-76
2022/01/28 08:22:50;;;;;;;13.70;9.60;;;4.00;65.30;;;;;;5003163;28;20095;-75
2022/01/28 08:25:17;;;;;;;15.90;9.98;;;4.10;65.40;;;;;;5023967;28;20053;-75
2022/01/28 08:27:47;;;;;;;14.43;10.43;;;4.10;65.40;;;;;;5007207;28;20060;-76
2022/01/28 08:30:16;;;;;;;18.17;10.60;;;4.20;65.50;;;;;;5006570;28;20029;-75
2022/01/28 08:32:43;;;;;;;16.88;10.88;;;4.20;65.40;;;;;;5009172;28;20029;-75
2022/01/28 08:35:09;;;;;;;17.92;11.90;;;4.30;65.60;;;;;;5008937;28;20029;-75
2022/01/28 08:37:36;;;;;;;18.58;11.60;;;4.30;65.50;;;;;;5008559;28;20030;-75
2022/01/28 08:40:04;;;;;;;20.65;10.48;;;4.40;65.60;;;;;;5026190;28;20025;-75
2022/01/28 08:42:30;;;;;;;17.50;10.73;;;4.40;65.60;;;;;;5027230;28;20519;-75
2022/01/28 08:44:56;;;;;;;17.13;11.57;;;4.50;65.70;;;;;;5027094;28;20033;-75
2022/01/28 08:47:22;;;;;;;18.88;12.02;;;4.50;65.60;;;;;;5027934;28;20049;-75
2022/01/28 08:49:48;;;;;;;20.02;12.57;;;4.60;65.80;;;;;;5026916;28;20407;-75
2022/01/28 08:52:14;;;;;;;17.23;10.50;;;4.60;65.70;;;;;;5030287;28;20108;-76
2022/01/28 08:54:42;;;;;;;18.48;10.23;;;4.70;65.80;;;;;;5028348;28;20026;-76
2022/01/28 08:57:08;;;;;;;16.70;11.45;;;4.70;65.80;;;;;;5042368;28;20053;-76
2022/01/28 08:59:35;;;;;;;21.13;11.90;;;4.70;65.70;;;;;;5026423;28;20034;-77
2022/01/28 09:02:01;;;;;;;21.90;12.35;;;4.80;65.90;;;;;;5017801;28;20038;-76
2022/01/28 09:04:27;;;;;;;18.00;12.30;;;4.80;65.90;;;;;;5026760;28;20053;-75
2022/01/28 09:06:53;;;;;;;20.52;11.68;;;4.80;65.80;;;;;;5026587;28;20034;-75
2022/01/28 09:09:20;;;;;;;17.38;11.65;;;4.90;66.00;;;;;;5040263;28;20076;-75
2022/01/28 09:14:14;;;;;;;20.48;12.13;;;5.00;66.10;;;;;;5044284;28;20025;-76
2022/01/28 09:16:42;;;;;;;21.92;12.00;;;5.10;66.20;;;;;;5049709;28;20515;-76
2022/01/28 09:19:08;;;;;;;17.98;11.55;;;5.10;66.20;;;;;;5049963;28;20055;-75
2022/01/28 09:21:34;;;;;;;18.90;13.32;;;5.10;66.10;;;;;;5050447;28;20037;-75
2022/01/28 09:24:00;;;;;;;20.35;12.65;;;5.20;66.30;;;;;;5045250;28;20044;-75
2022/01/28 09:26:26;;;;;;;20.55;12.45;;;5.20;66.20;;;;;;5029747;28;20051;-73
2022/01/28 09:28:52;;;;;;;20.17;12.45;;;5.30;66.30;;;;;;5020223;28;20060;-75
2022/01/28 09:31:20;;;;;;;20.35;13.13;;;5.40;66.40;;;;;;5008524;28;20034;-75
2022/01/28 09:33:46;;;;;;;19.40;11.50;;;5.40;66.30;;;;;;5007183;28;20129;-74
2022/01/28 09:36:12;;;;;;;17.50;11.15;;;5.50;66.40;;;;;;5008607;28;20030;-75
2022/01/28 09:38:38;;;;;;;20.95;13.02;;;5.50;66.30;;;;;;5008039;28;20034;-75
2022/01/28 09:41:06;;;;;;;17.70;11.63;;;5.60;66.50;;;;;;5007722;28;20092;-74
2022/01/28 09:43:33;;;;;;;17.27;11.57;;;5.70;66.60;;;;;;5006775;28;20052;-74
2022/01/28 09:46:02;;;;;;;17.20;11.68;;;5.70;66.50;;;;;;5007574;28;20102;-74
2022/01/28 09:48:28;;;;;;;16.58;11.95;;;5.70;66.50;;;;;;5007451;28;20111;-74
2022/01/28 09:50:58;;;;;;;16.48;11.63;;;5.80;66.60;;;;;;5007833;28;20027;-79
2022/01/28 09:53:24;;;;;;;16.63;10.88;;;5.80;66.60;;;;;;5008024;28;20200;-77
2022/01/28 09:55:50;;;;;;;19.50;12.82;;;5.90;66.70;;;;;;5007776;28;20045;-75
2022/01/28 09:58:16;;;;;;;20.10;13.18;;;5.90;66.70;;;;;;5010841;28;20037;-76
2022/01/28 10:00:43;;;;;;;19.85;12.88;;;6.00;66.80;;;;;;5027929;28;20092;-76
2022/01/28 10:03:14;;;;;;;19.70;11.43;;;6.00;66.80;;;;;;5026510;28;20526;-74
2022/01/28 10:05:41;;;;;;;19.63;12.63;;;6.00;66.80;;;;;;5027807;28;20531;-75
2022/01/28 10:08:12;;;;;;;17.45;10.90;;;6.10;66.90;;;;;;5026951;28;20072;-73
2022/01/28 10:10:40;;;;;;;18.20;11.82;;;6.20;67.00;;;;;;5027129;28;20246;-77
2022/01/28 10:13:37;;;;;;;18.33;11.38;;;6.20;67.00;;;;;;5027221;28;20037;-75
2022/01/28 10:16:05;;;;;;;18.15;12.00;;;6.30;67.10;;;;;;5027383;28;20022;-76
2022/01/28 10:18:42;;;;;;;17.92;12.45;;;6.30;67.00;;;;;;5019869;28;20045;-76
2022/01/28 10:21:19;;;;;;;16.90;12.27;;;6.40;67.20;;;;;;5007185;28;20084;-73
2022/01/28 10:24:08;;;;;;;18.00;11.70;;;6.40;67.10;;;;;;5021963;28;20100;-73
2022/01/28 10:26:40;;;;;;;15.55;11.45;;;6.50;67.30;;;;;;5007091;28;20037;-74
2022/01/28 10:29:09;;;;;;;19.55;12.50;;;6.50;67.20;;;;;;5016687;28;20042;-72
2022/01/28 10:31:42;;;;;;;16.85;11.50;;;6.60;67.30;;;;;;5026449;28;20113;-76
2022/01/28 10:34:10;;;;;;;16.65;11.23;;;6.70;67.40;;;;;;5008738;28;20037;-77
2022/01/28 10:36:37;;;;;;;18.67;12.48;;;6.80;67.50;;;;;;5020202;28;20089;-75
2022/01/28 10:39:04;;;;;;;18.65;12.45;;;6.80;67.50;;;;;;5017132;28;20065;-75
2022/01/28 10:41:30;;;;;;;17.00;12.05;;;6.90;67.60;;;;;;5025382;28;20112;-77
2022/01/28 10:43:57;;;;;;;18.58;12.82;;;7.00;67.70;;;;;;5027269;28;20033;-77
2022/01/28 10:46:26;;;;;;;18.38;11.45;;;7.10;67.80;;;;;;5024783;28;20026;-76
2022/01/28 10:48:55;;;;;;;20.35;12.65;;;7.20;67.80;;;;;;5019398;28;20037;-76
2022/01/28 10:51:22;;;;;;;18.25;12.95;;;7.30;67.90;;;;;;5007613;28;20042;-75
2022/01/28 10:54:10;;;;;;;16.15;11.85;;;7.50;68.00;;;;;;5008165;28;20045;-75
2022/01/28 10:56:57;;;;;;;17.70;12.60;;;7.60;68.00;;;;;;5010739;28;20037;-76
2022/01/28 10:59:32;;;;;;;17.55;11.80;;;7.70;67.90;;;;;;5009748;28;20029;-76
2022/01/28 11:01:59;;;;;;;17.77;11.70;;;7.80;67.80;;;;;;5009056;28;20497;-75
2022/01/28 11:04:25;;;;;;;17.45;11.93;;;7.90;68.00;;;;;;5009611;28;20033;-75
2022/01/28 11:06:54;;;;;;;15.75;11.45;;;8.00;68.20;;;;;;5010512;28;20386;-76
2022/01/28 11:09:21;;;;;;;18.23;11.40;;;8.00;68.10;;;;;;5010599;28;20071;-76
2022/01/28 11:11:49;;;;;;;17.30;12.27;;;8.10;68.30;;;;;;5009523;28;20026;-75
2022/01/28 11:14:15;;;;;;;15.63;10.77;;;8.10;68.30;;;;;;5008456;28;20140;-75
2022/01/28 11:16:41;;;;;;;15.18;9.70;;;8.30;68.70;;;;;;5008707;28;20030;-75
2022/01/28 11:19:13;;;;;;;15.90;10.45;;;8.40;68.70;;;;;;5017978;28;20041;-75
2022/01/28 11:22:03;;;;;;;16.40;11.27;;;8.60;68.70;;;;;;5029978;28;20041;-79
2022/01/28 11:24:45;;;;;;;14.38;9.75;;;8.80;68.80;;;;;;5029425;28;20479;-77
2022/01/28 11:27:17;;;;;;;15.05;9.77;;;9.00;68.80;;;;;;5030198;28;20384;-75
2022/01/28 11:29:44;;;;;;;11.88;8.85;;;9.10;68.70;;;;;;5023689;28;20032;-76
2022/01/28 11:32:15;;;;;;;13.93;9.27;;;9.10;68.50;;;;;;5023564;28;20032;-77
2022/01/28 11:34:56;;;;;;;12.52;8.88;;;9.20;68.70;;;;;;5031058;28;20037;-77
2022/01/28 11:37:33;;;;;;;12.85;8.77;;;9.20;68.80;;;;;;5032553;28;20056;-78
2022/01/28 11:40:10;;;;;;;12.20;8.48;;;9.30;68.90;;;;;;5032120;28;20037;-82
2022/01/28 11:42:37;;;;;;;11.82;8.07;;;9.30;69.00;;;;;;5031914;28;20049;-77
2022/01/28 11:45:06;;;;;;;10.88;8.10;;;9.30;68.90;;;;;;5029996;28;20057;-77
2022/01/28 11:47:51;;;;;;;12.32;8.27;;;9.40;69.20;;;;;;5028937;28;20056;-77
2022/01/28 11:50:19;;;;;;;9.90;7.60;;;9.50;69.30;;;;;;5030151;28;20057;-78
2022/01/28 11:52:48;;;;;;;11.18;8.05;;;9.50;69.20;;;;;;5028577;28;20068;-81
2022/01/28 11:55:15;;;;;;;11.88;7.63;;;9.70;69.50;;;;;;5028152;28;20446;-78
2022/01/28 11:58:08;;;;;;;10.15;7.05;;;9.80;69.50;;;;;;5024415;28;20456;-76
2022/01/28 12:00:38;;;;;;;6.60;4.70;;;9.90;69.50;;;;;;5016623;28;20397;-75
2022/01/28 12:03:19;;;;;;;8.38;5.25;;;10.00;69.60;;;;;;5016553;28;20272;-83
2022/01/28 12:05:48;;;;;;;7.30;4.82;;;10.30;70.20;;;;;;5032798;28;20072;-81
2022/01/28 12:08:16;;;;;;;7.22;5.50;;;10.40;70.10;;;;;;5017337;28;20496;-78
2022/01/28 12:10:45;;;;;;;8.07;4.88;;;10.60;70.20;;;;;;5030811;28;20095;-77
2022/01/28 12:13:16;;;;;;;6.68;4.20;;;10.70;70.10;;;;;;5033869;28;20384;-77
2022/01/28 12:18:46;;;;;;;9.15;4.97;;;10.90;70.30;;;;;;5032902;28;20065;-76
2022/01/28 12:21:14;;;;;;;5.95;4.25;;;11.00;70.40;;;;;;5010400;28;20037;-76
2022/01/28 12:23:40;;;;;;;11.15;5.47;;;11.10;70.40;;;;;;5009108;28;20076;-76
2022/01/28 12:26:07;;;;;;;7.32;4.55;;;11.20;70.50;;;;;;5009521;28;20025;-77
2022/01/28 12:28:33;;;;;;;5.90;3.67;;;11.20;70.50;;;;;;5009339;28;20125;-76
2022/01/28 12:31:01;;;;;;;6.35;3.90;;;11.30;70.60;;;;;;5007593;28;20026;-75
2022/01/28 12:33:32;;;;;;;5.18;4.18;;;11.40;70.70;;;;;;5013319;28;20052;-76
2022/01/28 12:36:07;;;;;;;5.43;3.50;;;11.40;70.50;;;;;;5009221;28;20032;-76
2022/01/28 12:38:36;;;;;;;6.50;3.47;;;11.50;70.50;;;;;;5008212;28;20189;-76
2022/01/28 12:41:08;;;;;;;7.80;4.40;;;11.60;70.60;;;;;;5008719;28;20436;-77
2022/01/28 12:43:37;;;;;;;8.57;4.72;;;11.60;71.00;;;;;;5008555;28;20038;-76
2022/01/28 12:46:13;;;;;;;7.57;3.65;;;11.60;71.00;;;;;;5015924;28;20108;-76
2022/01/28 12:48:53;;;;;;;8.15;3.80;;;11.70;70.50;;;;;;5025495;28;20041;-76
2022/01/28 12:51:24;;;;;;;6.10;3.75;;;11.80;70.60;;;;;;5028776;28;20044;-76
2022/01/28 12:53:54;;;;;;;6.03;3.80;;;11.80;70.40;;;;;;5027530;28;20060;-76
2022/01/28 12:56:32;;;;;;;4.13;3.10;;;11.90;70.50;;;;;;5008900;28;20408;-76
2022/01/28 12:58:58;;;;;;;4.97;3.47;;;11.90;70.30;;;;;;5014082;28;20033;-76
2022/01/28 13:01:25;;;;;;;6.05;2.97;;;12.00;70.40;;;;;;5020311;28;20473;-76
2022/01/28 13:04:14;;;;;;;5.93;3.13;;;12.00;70.20;;;;;;5027912;28;20037;-76
2022/01/28 13:06:59;;;;;;;4.10;2.88;;;12.10;70.30;;;;;;5027334;28;20428;-77
2022/01/28 13:09:25;;;;;;;5.35;3.25;;;12.10;70.20;;;;;;5027366;28;20040;-76
2022/01/28 13:11:53;;;;;;;5.75;3.50;;;12.20;70.20;;;;;;5028879;28;20491;-77
2022/01/28 13:14:20;;;;;;;8.02;3.60;;;12.30;70.30;;;;;;5028118;28;20026;-76
2022/01/28 13:16:48;;;;;;;4.93;2.90;;;12.30;70.10;;;;;;5025702;28;20040;-76
2022/01/28 13:19:16;;;;;;;3.90;2.90;;;12.40;70.10;;;;;;5017468;28;20021;-76
2022/01/28 13:21:44;;;;;;;7.13;3.70;;;12.50;70.10;;;;;;5008427;28;20587;-76
2022/01/28 13:24:13;;;;;;;6.20;2.83;;;12.50;69.80;;;;;;5023029;28;20121;-77
2022/01/28 13:26:59;;;;;;;4.47;3.08;;;12.60;69.90;;;;;;5008342;28;20038;-76
2022/01/28 13:29:37;;;;;;;4.28;2.60;;;12.70;69.80;;;;;;5018055;28;20037;-77
2022/01/28 13:32:16;;;;;;;4.60;2.92;;;12.70;69.60;;;;;;5027678;28;20388;-77
2022/01/28 13:34:47;;;;;;;5.97;2.72;;;12.80;69.70;;;;;;5027674;28;20075;-77
2022/01/28 13:37:38;;;;;;;4.80;3.10;;;12.90;69.70;;;;;;5027881;28;20029;-79
2022/01/28 13:40:26;;;;;;;4.28;2.50;;;12.90;69.40;;;;;;5010904;28;20026;-77
2022/01/28 13:43:13;;;;;;;3.63;2.45;;;12.90;69.30;;;;;;4997127;28;20447;-77
2022/01/28 13:45:53;;;;;;;3.35;2.90;;;13.00;69.30;;;;;;4990877;28;20034;-77
2022/01/28 13:48:41;;;;;;;5.07;2.90;;;13.10;69.30;;;;;;5008493;28;20207;-77
2022/01/28 13:51:12;;;;;;;5.88;2.60;;;13.10;69.10;;;;;;5009798;28;20484;-77
2022/01/28 13:56:33;;;;;;;4.85;2.65;;;13.30;69.20;;;;;;5027892;28;20702;-78
2022/01/28 13:59:00;;;;;;;3.65;2.75;;;13.30;69.10;;;;;;5026990;28;20493;-80
2022/01/28 14:01:28;;;;;;;6.60;2.75;;;13.40;69.10;;;;;;5026714;28;20037;-79
2022/01/28 14:03:57;;;;;;;3.78;3.30;;;13.40;68.90;;;;;;5008872;28;20045;-80
2022/01/28 14:06:31;;;;;;;5.22;2.83;;;13.50;68.90;;;;;;5027696;28;20021;-79
2022/01/28 14:09:25;;;;;;;3.25;2.63;;;13.60;68.90;;;;;;5022237;28;20180;-82
2022/01/28 14:11:59;;;;;;;;;;;13.60;68.60;;;;;;5006901;28;20400;-80
2022/01/28 14:14:33;;;;;;;4.00;2.08;;;13.70;68.90;;;;;;5008151;28;20384;-80
2022/01/28 14:17:08;;;;;;;3.88;2.75;;;13.60;68.70;;;;;;5015105;28;20022;-78
2022/01/28 14:19:36;;;;;;;4.75;2.90;;;13.70;68.80;;;;;;5017120;28;20069;-79
2022/01/28 14:22:03;;;;;;;3.33;2.45;;;13.60;68.50;;;;;;4990200;28;20037;-79
2022/01/28 14:24:33;;;;;;;2.60;2.05;;;13.60;68.50;;;;;;5008347;28;20050;-79
2022/01/28 14:32:05;;;;;;;9.35;2.67;;;13.50;68.40;;;;;;5011780;28;20560;-76
2022/01/28 14:34:31;;;;;;;4.88;2.92;;;13.40;68.30;;;;;;5013687;28;20032;-76
2022/01/28 14:36:58;;;;;;;3.13;2.40;;;13.40;68.30;;;;;;5012994;28;20026;-77
2022/01/28 14:39:25;;;;;;;4.57;3.10;;;13.30;68.20;;;;;;5013634;28;20530;-76
2022/01/28 14:41:53;;;;;;;4.65;2.85;;;13.20;68.10;;;;;;5012915;28;20393;-74
2022/01/28 14:44:19;;;;;;;5.80;2.95;;;13.20;68.20;;;;;;5010690;28;20385;-75
2022/01/28 14:46:45;;;;;;;3.78;2.40;;;13.10;68.20;;;;;;5011672;28;20452;-76
2022/01/28 14:49:11;;;;;;;7.82;3.38;;;13.00;68.10;;;;;;5010666;28;20326;-74